createdAt,value
2019-05-07T00:00:18.985Z,51.39
2019-05-07T00:01:18.889Z,50.78
2019-05-07T00:02:18.961Z,50.85
2019-05-07T00:03:18.949Z,51.27
2019-05-07T00:04:18.889Z,50.95
2019-05-07T00:05:18.978Z,50.94
2019-05-07T00:06:18.968Z,50.77
2019-05-07T00:07:18.918Z,50.93
2019-05-07T00:08:18.950Z,50.98
2019-05-07T00:09:18.948Z,51.04
2019-05-07T00:10:18.895Z,51.07
2019-05-07T00:11:18.983Z,50.19
2019-05-07T00:12:18.960Z,50.22
2019-05-07T00:13:18.901Z,50.31
2019-05-07T00:14:18.962Z,50.81
2019-05-07T00:15:18.949Z,50.31
2019-05-07T00:16:18.942Z,50.17
2019-05-07T00:17:18.979Z,50.97
2019-05-07T00:18:18.974Z,50.68
2019-05-07T00:19:18.905Z,50.57
2019-05-07T00:20:18.964Z,50.07
2019-05-07T00:21:18.964Z,50.46
2019-05-07T00:22:18.913Z,49.77
2019-05-07T00:23:18.972Z,49.63
2019-05-07T00:24:18.977Z,49.26
2019-05-07T00:25:18.922Z,49.48
2019-05-07T00:26:18.971Z,49.62
2019-05-07T00:27:18.960Z,49.81
2019-05-07T00:28:18.911Z,50.23
2019-05-07T00:29:18.989Z,50.18
2019-05-07T00:30:18.981Z,50.16
2019-05-07T00:31:18.906Z,49.87
2019-05-07T00:32:18.973Z,50.16
2019-05-07T00:33:18.892Z,49.61
2019-05-07T00:34:18.927Z,50.31
2019-05-07T00:35:18.987Z,50.21
2019-05-07T00:36:18.972Z,50.56
2019-05-07T00:37:18.933Z,50.19
2019-05-07T00:38:18.968Z,50.35
2019-05-07T00:39:18.972Z,50.37
2019-05-07T00:40:18.938Z,50.57
2019-05-07T00:41:18.999Z,50.54
2019-05-07T00:42:18.982Z,50.58
2019-05-07T00:43:18.925Z,51.47
2019-05-07T00:44:18.980Z,51.30
2019-05-07T00:45:21.639Z,51.31
2019-05-07T00:46:18.934Z,51.27
2019-05-07T00:47:18.979Z,51.37
2019-05-07T00:48:18.978Z,52.23
2019-05-07T00:49:18.951Z,53.01
2019-05-07T00:50:18.984Z,52.44
2019-05-07T00:51:18.944Z,52.31
2019-05-07T00:52:18.949Z,52.37
2019-05-07T00:53:18.937Z,52.27
2019-05-07T00:54:18.990Z,53.24
2019-05-07T00:55:18.933Z,52.90
2019-05-07T00:56:18.991Z,52.64
2019-05-07T00:57:18.995Z,53.42
2019-05-07T00:58:18.934Z,52.64
2019-05-07T00:59:18.937Z,52.37
2019-05-07T01:00:18.976Z,52.08
2019-05-07T01:01:18.950Z,52.40
2019-05-07T01:02:18.997Z,51.77
2019-05-07T01:03:19.004Z,52.74
2019-05-07T01:04:18.943Z,52.83
2019-05-07T01:05:18.987Z,52.87
2019-05-07T01:06:18.925Z,53.20
2019-05-07T01:07:18.938Z,53.69
2019-05-07T01:08:18.948Z,54.31
2019-05-07T01:09:19.004Z,54.54
2019-05-07T01:10:18.934Z,54.00
2019-05-07T01:11:18.936Z,54.35
2019-05-07T01:12:18.994Z,53.96
2019-05-07T01:13:18.957Z,53.33
2019-05-07T01:14:19.016Z,53.32
2019-05-07T01:15:28.822Z,52.81
2019-05-07T01:16:18.944Z,52.60
2019-05-07T01:17:19.002Z,53.39
2019-05-07T01:18:18.986Z,54.34
2019-05-07T01:19:18.959Z,52.70
2019-05-07T01:20:19.014Z,52.65
2019-05-07T01:21:19.005Z,52.56
2019-05-07T01:22:18.940Z,52.36
2019-05-07T01:23:19.003Z,52.36
2019-05-07T01:24:19.009Z,51.99
2019-05-07T01:25:18.975Z,52.14
2019-05-07T01:26:18.945Z,51.70
2019-05-07T01:27:19.009Z,52.28
2019-05-07T01:28:18.954Z,52.25
2019-05-07T01:29:19.012Z,52.51
2019-05-07T01:30:19.021Z,52.47
2019-05-07T01:31:18.993Z,52.94
2019-05-07T01:32:19.013Z,52.78
2019-05-07T01:33:19.018Z,52.36
2019-05-07T01:34:18.963Z,52.31
2019-05-07T01:35:19.042Z,52.20
2019-05-07T01:36:19.031Z,52.17
2019-05-07T01:37:18.974Z,52.32
2019-05-07T01:38:19.023Z,52.47
2019-05-07T01:39:18.960Z,52.79
2019-05-07T01:40:18.977Z,52.20
2019-05-07T01:41:19.015Z,53.05
2019-05-07T01:42:18.991Z,53.26
2019-05-07T01:43:19.002Z,53.23
2019-05-07T01:44:19.045Z,52.99
2019-05-07T01:45:19.023Z,53.40
2019-05-07T01:46:18.978Z,52.87
2019-05-07T01:47:19.025Z,53.15
2019-05-07T01:48:19.036Z,53.04
2019-05-07T01:49:19.075Z,52.63
2019-05-07T01:50:18.964Z,52.86
2019-05-07T01:51:19.014Z,53.13
2019-05-07T01:52:18.982Z,53.94
2019-05-07T01:53:18.961Z,54.87
2019-05-07T01:54:19.039Z,53.93
2019-05-07T01:55:19.013Z,53.46
2019-05-07T01:56:19.031Z,54.07
2019-05-07T01:57:18.962Z,53.93
2019-05-07T01:58:18.974Z,53.66
2019-05-07T01:59:19.028Z,54.28
2019-05-07T02:00:19.041Z,54.10
2019-05-07T02:01:18.992Z,55.30
2019-05-07T02:02:19.032Z,55.49
2019-05-07T02:03:19.031Z,55.66
2019-05-07T02:04:18.972Z,56.13
2019-05-07T02:05:18.988Z,54.48
2019-05-07T02:06:19.042Z,54.44
2019-05-07T02:07:18.998Z,55.05
2019-05-07T02:08:19.035Z,55.88
2019-05-07T02:09:19.030Z,56.83
2019-05-07T02:10:18.983Z,57.84
2019-05-07T02:11:19.055Z,58.86
2019-05-07T02:12:18.997Z,59.34
2019-05-07T02:13:18.995Z,59.98
2019-05-07T02:14:19.030Z,60.48
2019-05-07T02:15:19.045Z,60.39
2019-05-07T02:16:19.014Z,61.51
2019-05-07T02:17:19.002Z,62.56
2019-05-07T02:18:19.003Z,62.52
2019-05-07T02:19:19.013Z,62.80
2019-05-07T02:20:18.990Z,63.19
2019-05-07T02:21:18.984Z,62.13
2019-05-07T02:22:19.004Z,62.58
2019-05-07T02:23:19.062Z,62.70
2019-05-07T02:24:19.020Z,62.45
2019-05-07T02:25:19.012Z,62.99
2019-05-07T02:26:19.060Z,63.49
2019-05-07T02:27:19.035Z,63.68
2019-05-07T02:28:19.003Z,63.59
2019-05-07T02:29:19.018Z,63.58
2019-05-07T02:30:19.055Z,63.72
2019-05-07T02:31:19.015Z,63.29
2019-05-07T02:32:19.055Z,64.10
2019-05-07T02:33:19.007Z,65.36
2019-05-07T02:34:19.002Z,66.31
2019-05-07T02:35:19.054Z,66.58
2019-05-07T02:36:19.072Z,66.80
2019-05-07T02:37:19.023Z,66.68
2019-05-07T02:38:19.018Z,66.37
2019-05-07T02:39:19.054Z,67.18
2019-05-07T02:40:19.042Z,66.88
2019-05-07T02:41:19.053Z,66.49
2019-05-07T02:42:19.080Z,66.46
2019-05-07T02:43:19.020Z,66.93
2019-05-07T02:44:19.018Z,67.26
2019-05-07T02:45:19.015Z,67.44
2019-05-07T02:46:29.344Z,67.90
2019-05-07T02:47:19.019Z,68.28
2019-05-07T02:48:19.041Z,67.97
2019-05-07T02:49:19.029Z,67.48
2019-05-07T02:50:19.023Z,67.98
2019-05-07T02:51:19.028Z,68.49
2019-05-07T02:52:19.023Z,69.08
2019-05-07T02:53:19.048Z,68.21
2019-05-07T02:54:19.051Z,67.79
2019-05-07T02:55:19.043Z,68.50
2019-05-07T02:56:19.035Z,68.77
2019-05-07T02:57:19.042Z,68.99
2019-05-07T02:58:19.045Z,68.78
2019-05-07T02:59:19.001Z,69.77
2019-05-07T03:00:19.569Z,70.99
2019-05-07T03:01:19.083Z,71.24
2019-05-07T03:02:19.030Z,71.31
2019-05-07T03:03:19.002Z,71.61
2019-05-07T03:04:19.021Z,71.84
2019-05-07T03:05:19.057Z,71.85
2019-05-07T03:06:19.053Z,71.89
2019-05-07T03:07:19.048Z,72.28
2019-05-07T03:08:23.400Z,72.45
2019-05-07T03:09:19.037Z,72.58
2019-05-07T03:10:19.033Z,72.91
2019-05-07T03:11:19.077Z,72.79
2019-05-07T03:12:19.052Z,72.82
2019-05-07T03:13:19.045Z,72.90
2019-05-07T03:14:19.040Z,72.67
2019-05-07T03:15:19.040Z,72.43
2019-05-07T03:16:37.550Z,72.63
2019-05-07T03:17:19.028Z,72.41
2019-05-07T03:18:19.283Z,72.31
2019-05-07T03:19:19.045Z,72.11
2019-05-07T03:20:19.093Z,72.69
2019-05-07T03:21:19.045Z,72.66
2019-05-07T03:22:19.040Z,72.74
2019-05-07T03:23:19.053Z,72.93
2019-05-07T03:24:19.070Z,72.91
2019-05-07T15:00:23.297Z,30.13
2019-05-07T15:01:23.286Z,31.89
2019-05-07T15:02:23.741Z,30.30
2019-05-07T15:03:23.285Z,31.04
2019-05-07T15:04:23.282Z,33.42
2019-05-07T15:05:23.331Z,33.18
2019-05-07T15:06:23.306Z,32.15
2019-05-07T15:07:23.312Z,31.69
2019-05-07T15:08:23.316Z,32.04
2019-05-07T15:09:23.355Z,30.81
2019-05-07T15:10:23.312Z,30.98
2019-05-07T15:11:23.328Z,30.95
2019-05-07T15:12:23.652Z,30.71
2019-05-07T15:13:23.305Z,31.19
2019-05-07T15:14:23.316Z,32.29
2019-05-07T15:15:23.373Z,31.72
2019-05-07T15:16:23.348Z,31.65
2019-05-07T15:17:23.396Z,31.61
2019-05-07T15:18:23.814Z,32.06
2019-05-07T15:19:23.331Z,32.20
2019-05-07T15:20:23.328Z,32.37
2019-05-07T15:21:23.402Z,33.04
2019-05-07T15:22:23.361Z,32.01
2019-05-07T15:23:23.346Z,31.79
2019-05-07T15:24:23.383Z,31.81
2019-05-07T15:25:23.351Z,31.67
2019-05-07T15:26:23.369Z,30.48
2019-05-07T15:27:23.414Z,30.95
2019-05-07T15:28:23.729Z,31.12
2019-05-07T15:29:23.339Z,30.92
2019-05-07T15:30:23.457Z,30.38
2019-05-07T15:31:23.342Z,31.19
2019-05-07T15:32:23.369Z,31.88
2019-05-07T15:33:23.825Z,31.19
2019-05-07T15:34:23.429Z,30.85
2019-05-07T15:43:45.879Z,32.17
2019-05-07T15:44:43.179Z,31.56
2019-05-07T15:45:42.761Z,31.52
2019-05-07T15:46:42.866Z,30.66
2019-05-07T15:47:42.730Z,30.87
2019-05-07T15:48:42.737Z,31.11
2019-05-07T15:49:42.781Z,30.69
2019-05-07T15:50:42.988Z,31.99
2019-05-07T15:51:42.754Z,32.00
2019-05-07T15:52:42.836Z,30.76
2019-05-07T15:54:35.285Z,31.38
2019-05-07T15:55:34.292Z,30.36
2019-05-07T15:56:34.307Z,29.98
2019-05-07T15:57:34.316Z,30.36
2019-05-07T15:58:34.303Z,30.12
2019-05-07T15:59:34.354Z,28.98
2019-05-07T16:00:34.371Z,29.22
2019-05-07T16:01:34.303Z,28.87
2019-05-07T16:02:34.307Z,29.13
2019-05-07T16:03:34.336Z,29.67
2019-05-07T16:04:34.304Z,29.11
2019-05-07T16:05:34.335Z,28.54
2019-05-07T16:06:34.353Z,29.69
2019-05-07T16:07:34.323Z,30.07
2019-05-07T16:08:34.311Z,30.85
2019-05-07T16:09:34.344Z,30.81
2019-05-07T16:10:34.328Z,29.68
2019-05-07T16:11:34.365Z,29.23
2019-05-07T16:12:34.358Z,29.80
2019-05-07T16:13:34.322Z,30.07
2019-05-07T16:14:34.316Z,29.75
2019-05-07T16:15:34.375Z,30.90
2019-05-07T16:16:34.324Z,30.07
2019-05-07T16:17:34.383Z,30.96
2019-05-07T16:43:30.238Z,34.90
2019-05-07T16:44:30.157Z,35.10
2019-05-07T16:45:30.274Z,34.67
2019-05-07T16:46:30.272Z,34.08
2019-05-07T16:47:30.237Z,33.72
2019-05-07T16:48:32.530Z,34.68
2019-05-07T16:49:31.828Z,33.69
2019-05-07T16:50:32.048Z,35.61
2019-05-07T16:51:32.857Z,35.67
2019-05-07T16:52:34.722Z,35.56
2019-05-07T16:53:32.640Z,35.52
2019-05-07T16:54:30.268Z,34.59
2019-05-07T16:55:30.267Z,34.35
2019-05-07T16:56:30.227Z,34.90
2019-05-07T16:57:31.824Z,34.23
2019-05-07T16:58:32.055Z,35.70
2019-05-07T16:59:32.426Z,35.67
2019-05-07T17:00:31.870Z,36.16
2019-05-07T17:01:32.356Z,35.60
2019-05-07T17:02:33.648Z,35.66
2019-05-07T17:03:31.865Z,35.39
2019-05-07T17:04:31.927Z,35.62
2019-05-07T17:05:32.116Z,35.99
2019-05-07T17:06:32.099Z,36.04
2019-05-07T17:07:32.165Z,35.83
2019-05-07T17:08:31.920Z,36.36
2019-05-07T17:09:32.231Z,37.26
2019-05-07T17:10:31.789Z,37.30
2019-05-07T17:11:32.053Z,36.74
2019-05-07T17:12:32.253Z,36.68
2019-05-07T17:13:31.959Z,36.63
2019-05-07T17:14:30.302Z,37.37
2019-05-07T17:15:30.346Z,38.08
2019-05-07T17:16:31.769Z,37.89
2019-05-07T17:17:32.023Z,38.54
2019-05-07T17:18:32.410Z,37.59
2019-05-07T17:19:31.962Z,38.57
2019-05-07T17:20:32.493Z,37.91
2019-05-07T17:21:32.259Z,38.90
2019-05-07T17:22:32.209Z,39.18
2019-05-07T17:23:41.354Z,38.86
2019-05-07T17:24:30.311Z,38.33
2019-05-07T17:25:30.312Z,38.28
2019-05-07T17:26:30.285Z,39.07
2019-05-07T17:27:32.123Z,38.70
2019-05-07T17:28:31.986Z,38.62
2019-05-07T17:29:32.072Z,39.19
2019-05-07T17:30:31.997Z,39.17
2019-05-07T17:31:31.859Z,39.11
2019-05-07T17:32:32.138Z,39.58
2019-05-07T17:33:31.979Z,39.64
2019-05-07T17:34:30.284Z,39.40
2019-05-07T17:35:30.291Z,39.14
2019-05-07T17:36:30.309Z,39.52
2019-05-07T17:37:30.323Z,39.75
2019-05-07T17:38:32.031Z,40.54
2019-05-07T17:39:32.122Z,40.86
2019-05-07T17:40:32.087Z,40.50
2019-05-07T17:41:32.319Z,41.44
2019-05-07T17:42:32.729Z,41.72
2019-05-07T17:43:32.343Z,42.64
2019-05-07T17:44:32.317Z,42.99
2019-05-07T17:45:32.232Z,41.31
2019-05-07T17:46:32.410Z,41.95
2019-05-07T17:47:32.170Z,40.90
2019-05-07T17:48:32.618Z,40.90
2019-05-07T17:49:32.169Z,42.21
2019-05-07T17:50:32.200Z,42.56
2019-05-07T17:51:32.261Z,42.58
2019-05-07T17:52:32.217Z,42.16
2019-05-07T17:53:32.004Z,45.88
2019-05-07T17:54:31.842Z,46.01
2019-05-07T17:55:30.335Z,44.99
2019-05-07T17:56:32.019Z,46.10
2019-05-07T17:57:30.380Z,45.63
2019-05-07T17:58:32.389Z,46.10
2019-05-07T17:59:32.091Z,45.70
2019-05-07T18:00:32.698Z,44.87
2019-05-07T18:01:32.182Z,46.21
2019-05-07T18:02:30.315Z,45.77
2019-05-07T18:03:32.229Z,45.96
2019-05-07T18:04:32.447Z,45.61
2019-05-07T18:05:31.755Z,46.62
2019-05-07T18:06:32.106Z,47.35
2019-05-07T18:07:30.352Z,46.01
2019-05-07T18:08:32.230Z,47.30
2019-05-07T18:09:31.893Z,46.54
2019-05-07T18:10:31.984Z,46.91
2019-05-07T18:11:32.293Z,46.47
2019-05-07T18:12:32.028Z,47.25
2019-05-07T18:13:32.404Z,47.56
2019-05-07T18:14:32.182Z,47.38
2019-05-07T18:15:32.180Z,47.59
2019-05-07T18:16:32.469Z,48.38
2019-05-07T18:17:30.353Z,48.41
2019-05-07T18:18:32.533Z,48.20
2019-05-07T18:19:30.358Z,48.38
2019-05-07T18:20:30.359Z,48.35
2019-05-07T18:21:32.435Z,48.64
2019-05-07T18:22:32.412Z,48.97
2019-05-07T18:23:32.120Z,48.91
2019-05-07T18:24:32.432Z,49.27
2019-05-07T18:25:32.221Z,50.04
2019-05-07T18:26:33.217Z,50.14
2019-05-07T18:27:32.825Z,50.89
2019-05-07T18:28:32.391Z,50.74
2019-05-07T18:29:32.397Z,51.12
2019-05-07T18:30:32.536Z,51.19
2019-05-07T18:31:32.503Z,51.04
2019-05-07T18:32:32.370Z,51.09
2019-05-07T18:33:30.398Z,51.34
2019-05-07T18:34:32.045Z,52.67
2019-05-07T18:35:32.112Z,52.90
2019-05-07T18:36:31.649Z,52.60
2019-05-07T18:37:32.473Z,53.04
2019-05-07T18:38:32.730Z,52.83
2019-05-07T18:39:32.440Z,53.29
2019-05-07T18:40:30.449Z,53.63
2019-05-07T18:41:32.549Z,53.30
2019-05-07T18:42:32.547Z,55.11
2019-05-07T18:43:30.433Z,55.17
2019-05-07T18:44:30.450Z,54.74
2019-05-07T18:45:30.453Z,55.69
2019-05-07T18:46:32.595Z,56.17
2019-05-07T18:47:32.967Z,55.60
2019-05-07T18:48:30.475Z,56.25
2019-05-07T18:49:30.479Z,56.17
2019-05-07T18:50:32.448Z,56.83
2019-05-07T18:51:32.162Z,57.54
2019-05-07T18:52:32.001Z,58.21
2019-05-07T18:53:31.848Z,58.34
2019-05-07T18:54:31.445Z,60.11
2019-05-07T18:55:30.556Z,58.72
2019-05-07T18:56:30.499Z,58.48
2019-05-07T18:57:32.659Z,58.89
2019-05-07T18:58:31.896Z,60.12
2019-05-07T18:59:31.787Z,59.47
2019-05-07T19:00:31.781Z,60.84
2019-05-07T19:01:32.570Z,60.38
2019-05-07T19:02:31.954Z,59.59
2019-05-07T19:03:32.344Z,58.88
2019-05-07T19:04:32.638Z,60.05
2019-05-07T19:05:31.710Z,60.78
2019-05-07T19:06:31.866Z,60.49
2019-05-07T19:07:32.484Z,61.46
2019-05-07T19:08:32.637Z,60.96
2019-05-07T19:09:32.009Z,61.20
2019-05-07T19:10:32.752Z,62.17
2019-05-07T19:11:32.143Z,62.20
2019-05-07T19:12:32.617Z,61.82
2019-05-07T19:13:32.614Z,61.20
2019-05-07T19:14:33.122Z,61.25
2019-05-07T19:15:32.721Z,61.21
2019-05-07T19:16:32.342Z,62.16
2019-05-07T19:17:32.321Z,61.81
2019-05-07T19:18:32.233Z,62.28
2019-05-07T19:19:32.797Z,61.80
2019-05-07T19:20:32.652Z,62.32
2019-05-07T19:21:32.026Z,63.17
2019-05-07T19:22:32.911Z,63.48
2019-05-07T19:23:32.835Z,64.13
2019-05-07T19:24:42.258Z,64.15
2019-05-07T19:25:32.704Z,64.27
2019-05-07T19:26:30.769Z,63.87
2019-05-07T19:27:32.689Z,63.91
2019-05-07T19:28:32.779Z,63.56
2019-05-07T19:29:32.533Z,64.02
2019-05-07T19:30:32.578Z,64.03
2019-05-07T19:31:32.538Z,63.93
2019-05-07T19:32:32.326Z,63.58
2019-05-07T19:33:32.475Z,63.45
2019-05-07T19:34:32.446Z,63.70
2019-05-07T19:35:32.734Z,63.52
2019-05-07T19:36:32.150Z,64.44
2019-05-07T19:37:31.923Z,65.06
2019-05-07T19:38:32.329Z,65.46
2019-05-07T19:39:32.523Z,65.04
2019-05-07T19:40:32.458Z,64.99
2019-05-07T19:41:32.122Z,65.03
2019-05-07T19:42:31.797Z,65.16
2019-05-07T19:43:32.518Z,65.16
2019-05-07T19:44:30.986Z,64.56
2019-05-07T19:45:30.983Z,65.56
2019-05-07T19:46:30.937Z,66.07
2019-05-07T19:47:32.703Z,66.12
2019-05-07T19:48:32.280Z,65.85
2019-05-07T19:49:32.481Z,65.46
2019-05-07T19:50:32.429Z,65.05
2019-05-07T19:51:32.035Z,65.55
2019-05-07T19:52:33.007Z,65.82
2019-05-07T19:53:32.747Z,65.77
2019-05-07T19:54:32.361Z,65.18
2019-05-07T19:55:32.860Z,65.51
2019-05-07T19:56:32.435Z,65.44
2019-05-07T19:57:33.024Z,65.46
2019-05-07T19:58:32.714Z,65.89
2019-05-07T19:59:32.638Z,65.94
2019-05-07T20:00:32.743Z,66.28
2019-05-07T20:01:32.334Z,66.75
2019-05-07T20:02:32.109Z,67.04
2019-05-07T20:03:31.137Z,67.08
2019-05-07T20:04:32.143Z,67.47
2019-05-07T20:05:32.335Z,67.86
2019-05-07T20:06:32.439Z,67.35
2019-05-07T20:07:31.869Z,67.53
2019-05-07T20:08:32.265Z,68.00
2019-05-07T20:09:32.950Z,68.38
2019-05-07T20:10:33.032Z,67.65
2019-05-07T20:11:31.982Z,67.28
2019-05-07T20:12:32.296Z,66.97
2019-05-07T20:13:32.346Z,66.63
2019-05-07T20:14:33.079Z,67.00
2019-05-07T20:15:32.005Z,67.44
2019-05-07T20:16:32.908Z,67.11
2019-05-07T20:17:33.472Z,67.49
2019-05-07T20:18:32.688Z,67.61
2019-05-07T20:19:32.666Z,68.37
2019-05-07T20:20:33.133Z,67.95
2019-05-07T20:21:32.294Z,67.59
2019-05-07T20:22:32.899Z,67.84
2019-05-07T20:23:32.368Z,67.81
2019-05-07T20:24:32.625Z,68.04
2019-05-07T20:25:32.912Z,67.95
2019-05-07T20:26:32.632Z,68.49
2019-05-07T20:27:32.373Z,69.07
2019-05-07T20:28:32.587Z,69.00
2019-05-07T20:29:32.381Z,69.42
2019-05-07T20:30:32.838Z,69.06
2019-05-07T20:31:32.951Z,68.11
2019-05-07T20:32:32.818Z,67.83
2019-05-07T20:33:32.773Z,67.63
2019-05-07T20:34:32.908Z,68.05
2019-05-07T20:35:32.576Z,67.85
2019-05-07T20:36:32.729Z,67.63
2019-05-07T20:37:32.604Z,67.32
2019-05-07T20:38:32.079Z,67.37
2019-05-07T20:39:32.266Z,67.64
2019-05-07T20:40:32.101Z,68.06
2019-05-07T20:41:32.545Z,68.32
2019-05-07T20:42:32.445Z,68.10
2019-05-07T20:43:32.660Z,68.43
2019-05-07T20:44:31.932Z,69.12
2019-05-07T20:45:32.048Z,69.61
2019-05-07T20:46:31.890Z,69.08
2019-05-07T20:47:32.585Z,68.23
2019-05-07T20:48:32.423Z,67.94
2019-05-07T20:49:32.056Z,67.68
2019-05-07T20:50:33.104Z,67.47
2019-05-07T20:51:32.508Z,67.27
2019-05-07T20:52:32.559Z,67.65
2019-05-07T20:53:32.700Z,67.04
2019-05-07T20:54:32.472Z,67.88
2019-05-07T20:55:33.773Z,67.82
2019-05-07T20:56:32.239Z,67.53
2019-05-07T20:57:31.987Z,67.58
2019-05-07T20:58:32.845Z,67.22
2019-05-07T20:59:32.755Z,67.63
2019-05-07T21:00:32.579Z,68.06
2019-05-07T21:01:32.966Z,68.25
2019-05-07T21:02:44.899Z,68.37
2019-05-07T21:03:32.477Z,68.76
2019-05-07T21:04:32.975Z,68.41
2019-05-07T21:05:32.451Z,68.20
2019-05-07T21:06:32.230Z,68.83
2019-05-07T21:07:32.789Z,68.71
2019-05-07T21:08:32.121Z,68.63
2019-05-07T21:09:32.784Z,68.00
2019-05-07T21:10:32.914Z,68.33
2019-05-07T21:11:32.294Z,68.37
2019-05-07T21:12:33.142Z,68.80
2019-05-07T21:13:32.427Z,68.66
2019-05-07T21:14:32.419Z,68.46
2019-05-07T21:15:32.314Z,68.49
2019-05-07T21:16:32.880Z,68.49
2019-05-07T21:17:32.197Z,68.11
2019-05-07T21:18:32.721Z,68.41
2019-05-07T21:19:32.845Z,68.60
2019-05-07T21:20:32.356Z,68.77
2019-05-07T21:21:32.715Z,69.02
2019-05-07T21:22:31.952Z,69.45
2019-05-07T21:23:32.587Z,69.92
2019-05-07T21:24:33.055Z,69.76
2019-05-07T21:25:42.288Z,70.42
2019-05-07T21:26:32.673Z,70.21
2019-05-07T21:27:32.127Z,70.91
2019-05-07T21:28:32.390Z,70.95
2019-05-07T21:29:32.690Z,70.87
2019-05-07T21:30:32.800Z,70.91
2019-05-07T21:31:32.214Z,70.71
2019-05-07T21:32:32.535Z,70.61
2019-05-07T21:33:32.254Z,70.98
2019-05-07T21:34:31.766Z,70.46
2019-05-07T21:35:31.948Z,70.42
2019-05-07T21:36:32.409Z,70.55
2019-05-07T21:37:32.361Z,70.99
2019-05-07T21:38:32.934Z,71.90
2019-05-07T21:39:32.935Z,71.96
2019-05-07T21:40:32.060Z,71.83
2019-05-07T21:41:33.223Z,71.08
2019-05-07T21:42:32.066Z,70.83
2019-05-07T21:43:32.646Z,70.69
2019-05-07T21:44:32.648Z,70.13
2019-05-07T21:45:32.712Z,69.79
2019-05-07T21:46:32.954Z,69.76
2019-05-07T21:47:32.650Z,69.98
2019-05-07T21:48:32.921Z,69.94
2019-05-07T21:49:32.305Z,69.97
2019-05-07T21:50:31.038Z,70.32
2019-05-07T21:51:31.090Z,70.47
2019-05-07T21:52:32.942Z,70.54
2019-05-07T21:53:32.368Z,70.96
2019-05-07T21:54:31.066Z,70.91
2019-05-07T21:55:31.076Z,70.29
2019-05-07T21:56:31.111Z,70.15
2019-05-07T21:57:32.995Z,70.52
2019-05-07T21:58:32.836Z,70.73
2019-05-07T21:59:35.470Z,70.91
2019-05-07T22:00:32.548Z,71.29
2019-05-07T22:01:32.718Z,71.79
2019-05-07T22:02:32.772Z,72.39
2019-05-07T22:03:34.733Z,72.67
2019-05-07T22:04:31.094Z,72.50
2019-05-07T22:05:31.103Z,71.99
2019-05-07T22:06:31.080Z,71.09
2019-05-07T22:07:31.086Z,71.11
2019-05-07T22:08:32.589Z,71.42
2019-05-07T22:09:33.022Z,71.91
2019-05-07T22:10:32.969Z,72.00
2019-05-07T22:11:32.334Z,71.93
2019-05-07T22:12:32.008Z,71.68
2019-05-07T22:13:32.995Z,72.60
2019-05-07T22:14:32.841Z,73.29
2019-05-07T22:15:31.910Z,74.04
2019-05-07T22:16:32.774Z,74.68
2019-05-07T22:17:31.103Z,74.75
2019-05-07T22:18:31.968Z,74.70
2019-05-07T22:19:33.613Z,74.15
2019-05-07T22:20:32.004Z,74.24
2019-05-07T22:21:33.939Z,73.60
2019-05-07T22:22:31.998Z,73.13
2019-05-07T22:23:32.348Z,73.63
2019-05-07T22:24:32.832Z,73.79
2019-05-07T22:25:32.808Z,74.14
2019-05-07T22:26:32.180Z,74.46
2019-05-07T22:27:32.770Z,74.09
2019-05-07T22:28:32.062Z,73.93
2019-05-07T22:29:31.125Z,73.50
2019-05-07T22:30:33.914Z,73.83
2019-05-07T22:31:31.072Z,74.44
2019-05-07T22:32:31.120Z,74.37
2019-05-07T22:33:31.064Z,74.34
2019-05-07T22:34:31.142Z,74.65
2019-05-07T22:35:31.105Z,75.17
2019-05-07T22:36:32.703Z,75.91
2019-05-07T22:37:32.429Z,76.22
2019-05-07T22:38:32.374Z,76.74
2019-05-07T22:39:32.741Z,76.57
2019-05-07T22:40:32.121Z,76.28
2019-05-07T22:41:31.842Z,76.00
2019-05-07T22:42:32.702Z,75.56
2019-05-07T22:43:31.846Z,74.83
2019-05-07T22:44:32.129Z,74.67
2019-05-07T22:45:32.237Z,74.40
2019-05-07T22:46:32.696Z,74.54
2019-05-07T22:47:32.652Z,74.62
2019-05-07T22:48:32.479Z,75.09
2019-05-07T22:49:33.231Z,75.75
2019-05-07T22:50:33.034Z,75.88
2019-05-07T22:51:31.093Z,75.71
2019-05-07T22:52:32.660Z,75.54
2019-05-07T22:53:32.799Z,75.84
2019-05-07T22:54:31.994Z,75.64
2019-05-07T22:55:32.690Z,75.39
2019-05-07T22:56:37.333Z,75.46
2019-05-07T22:57:32.598Z,75.24
2019-05-07T22:58:32.597Z,74.86
2019-05-07T22:59:32.809Z,75.06
2019-05-07T23:00:32.150Z,75.16
2019-05-07T23:01:32.019Z,75.08
2019-05-07T23:02:32.113Z,75.77
2019-05-07T23:03:32.253Z,76.39
2019-05-07T23:04:32.514Z,76.65
2019-05-07T23:05:32.411Z,76.48
2019-05-07T23:06:31.061Z,76.37
2019-05-07T23:07:32.905Z,76.93
2019-05-07T23:08:32.862Z,76.64
2019-05-07T23:09:31.109Z,76.93
2019-05-07T23:10:33.083Z,77.20
2019-05-07T23:11:31.120Z,77.30
2019-05-07T23:12:32.734Z,77.25
2019-05-07T23:13:31.848Z,77.87
2019-05-07T23:14:33.034Z,78.06
2019-05-07T23:15:32.173Z,78.38
2019-05-07T23:16:32.447Z,78.23
2019-05-07T23:17:32.623Z,78.41
2019-05-07T23:18:31.919Z,78.24
2019-05-07T23:19:32.696Z,78.07
2019-05-07T23:20:31.937Z,77.91
2019-05-07T23:21:31.981Z,77.91
2019-05-07T23:22:32.408Z,77.95
2019-05-07T23:23:32.541Z,78.20
2019-05-07T23:24:31.841Z,78.26
2019-05-07T23:25:32.233Z,78.52
2019-05-07T23:26:33.527Z,78.31
2019-05-07T23:27:32.544Z,78.55
2019-05-07T23:28:32.311Z,78.47
2019-05-07T23:29:33.008Z,78.49
2019-05-07T23:30:33.112Z,78.63
2019-05-07T23:31:31.105Z,78.96
2019-05-07T23:32:32.921Z,78.98
2019-05-07T23:33:32.180Z,79.14
2019-05-07T23:34:32.589Z,79.00
2019-05-07T23:35:32.857Z,78.87
2019-05-07T23:36:31.144Z,78.86
2019-05-07T23:37:33.126Z,79.34
2019-05-07T23:38:31.945Z,79.47
2019-05-07T23:39:31.152Z,79.42
2019-05-07T23:40:31.169Z,79.51
2019-05-07T23:41:32.990Z,79.32
2019-05-07T23:42:31.151Z,79.23
2019-05-07T23:43:31.116Z,79.14
2019-05-07T23:44:31.162Z,79.44
2019-05-07T23:45:31.139Z,79.39
2019-05-07T23:46:31.168Z,79.57
2019-05-07T23:47:31.781Z,79.52
2019-05-07T23:48:32.093Z,79.64
2019-05-07T23:49:32.261Z,79.83
2019-05-07T23:50:32.421Z,79.69
2019-05-07T23:51:31.153Z,79.56
2019-05-07T23:52:31.162Z,79.50
2019-05-07T23:53:31.228Z,79.76
2019-05-07T23:54:31.904Z,79.72
2019-05-07T23:55:31.870Z,79.75
2019-05-07T23:56:32.942Z,79.49
2019-05-07T23:57:32.519Z,79.63
2019-05-07T23:58:32.670Z,79.75
2019-05-07T23:59:32.901Z,79.72
